createdAt,value
2023-04-23T00:01:59.304Z,4.18
2023-04-23T00:04:29.812Z,4.13
2023-04-23T00:06:58.972Z,4.03
2023-04-23T00:09:30.118Z,4.30
2023-04-23T00:11:58.377Z,4.05
2023-04-23T00:14:26.148Z,3.85
2023-04-23T00:16:54.111Z,4.28
2023-04-23T00:19:21.498Z,4.50
2023-04-23T00:21:49.178Z,3.97
2023-04-23T00:24:16.676Z,4.00
2023-04-23T00:26:44.150Z,4.15
2023-04-23T00:29:11.783Z,4.30
2023-04-23T00:31:39.446Z,4.50
2023-04-23T00:34:06.926Z,4.30
2023-04-23T00:36:34.387Z,4.20
2023-04-23T00:39:01.990Z,4.28
2023-04-23T00:41:29.623Z,4.22
2023-04-23T00:43:58.062Z,4.10
2023-04-23T00:46:26.621Z,4.32
2023-04-23T00:48:54.962Z,4.35
2023-04-23T00:51:25.148Z,4.68
2023-04-23T00:53:52.742Z,4.55
2023-04-23T00:56:21.782Z,4.10
2023-04-23T00:58:49.933Z,4.03
2023-04-23T01:01:21.031Z,4.30
2023-04-23T01:03:49.930Z,5.03
2023-04-23T01:06:18.272Z,3.83
2023-04-23T01:08:47.892Z,3.95
2023-04-23T01:11:17.146Z,4.07
2023-04-23T01:13:44.696Z,4.38
2023-04-23T01:16:12.241Z,4.15
2023-04-23T01:18:41.367Z,4.13
2023-04-23T01:21:12.090Z,4.45
2023-04-23T01:23:40.392Z,3.90
2023-04-23T01:26:08.634Z,4.03
2023-04-23T01:28:37.303Z,3.53
2023-04-23T01:31:05.132Z,3.83
2023-04-23T01:33:33.736Z,4.03
2023-04-23T01:36:02.443Z,4.10
2023-04-23T01:38:32.977Z,4.18
2023-04-23T01:41:00.551Z,4.10
2023-04-23T01:43:28.727Z,3.70
2023-04-23T01:45:56.441Z,3.95
2023-04-23T01:48:25.052Z,4.00
2023-04-23T01:50:53.750Z,4.00
2023-04-23T01:53:21.229Z,4.55
2023-04-23T01:55:50.947Z,4.70
2023-04-23T01:58:19.582Z,4.22
2023-04-23T02:00:47.446Z,4.00
2023-04-23T02:03:15.575Z,4.15
2023-04-23T02:05:43.489Z,3.92
2023-04-23T02:08:12.627Z,4.18
2023-04-23T02:10:40.151Z,4.55
2023-04-23T02:13:07.713Z,4.28
2023-04-23T02:15:35.581Z,4.68
2023-04-23T02:18:03.228Z,4.38
2023-04-23T02:20:30.810Z,4.47
2023-04-23T02:22:58.483Z,4.50
2023-04-23T02:25:26.054Z,4.47
2023-04-23T02:27:53.531Z,4.68
2023-04-23T02:30:23.019Z,4.70
2023-04-23T02:32:50.584Z,4.63
2023-04-23T02:35:18.185Z,4.43
2023-04-23T02:37:45.983Z,5.10
2023-04-23T02:40:13.501Z,4.95
2023-04-23T02:42:43.199Z,4.57
2023-04-23T02:45:12.076Z,4.10
2023-04-23T02:47:39.856Z,4.50
2023-04-23T02:50:07.935Z,4.10
2023-04-23T02:52:35.866Z,4.72
2023-04-23T02:55:05.432Z,4.47
2023-04-23T02:57:33.216Z,4.20
2023-04-23T03:00:01.152Z,4.45
2023-04-23T03:02:35.965Z,4.50
2023-04-23T03:05:05.470Z,5.10
2023-04-23T03:07:33.293Z,5.03
2023-04-23T03:10:00.798Z,5.50
2023-04-23T03:12:29.101Z,5.25
2023-04-23T03:14:56.593Z,5.03
2023-04-23T03:17:27.123Z,5.40
2023-04-23T03:19:55.021Z,5.35
2023-04-23T03:22:23.342Z,5.30
2023-04-23T03:24:50.889Z,5.50
2023-04-23T03:27:18.426Z,5.78
2023-04-23T03:29:46.527Z,5.13
2023-04-23T03:32:14.263Z,4.55
2023-04-23T03:34:42.068Z,5.43
2023-04-23T03:37:10.075Z,5.75
2023-04-23T03:39:39.348Z,6.40
2023-04-23T03:42:08.229Z,5.85
2023-04-23T03:44:37.285Z,5.63
2023-04-23T03:47:04.945Z,5.53
2023-04-23T03:49:33.649Z,5.50
2023-04-23T03:52:01.468Z,5.13
2023-04-23T03:54:30.643Z,5.13
2023-04-23T03:57:04.960Z,4.20
2023-04-23T03:59:39.235Z,4.60
2023-04-23T04:02:07.092Z,4.65
2023-04-23T04:04:34.946Z,5.32
2023-04-23T04:07:02.483Z,5.20
2023-04-23T04:09:30.221Z,6.15
2023-04-23T04:12:01.891Z,6.20
2023-04-23T04:14:29.472Z,6.22
2023-04-23T04:16:57.144Z,6.50
2023-04-23T04:19:24.901Z,5.35
2023-04-23T04:21:52.513Z,4.45
2023-04-23T04:24:20.036Z,5.72
2023-04-23T04:26:48.114Z,6.25
2023-04-23T04:29:15.963Z,6.80
2023-04-23T04:31:43.582Z,6.50
2023-04-23T04:34:11.170Z,5.18
2023-04-23T04:36:38.619Z,5.10
2023-04-23T04:39:06.750Z,3.63
2023-04-23T04:41:34.475Z,2.20
2023-04-23T04:44:01.969Z,2.20
2023-04-23T04:46:29.529Z,2.45
2023-04-23T04:48:57.061Z,2.10
2023-04-23T04:51:24.564Z,2.60
2023-04-23T04:53:52.036Z,2.03
2023-04-23T04:56:19.527Z,2.70
2023-04-23T04:58:46.932Z,2.97
2023-04-23T05:01:14.600Z,2.60
2023-04-23T05:03:42.443Z,2.67
2023-04-23T05:06:10.819Z,2.38
2023-04-23T05:08:38.605Z,2.53
2023-04-23T05:11:06.073Z,2.38
2023-04-23T05:13:33.683Z,2.50
2023-04-23T05:16:01.479Z,2.60
2023-04-23T05:18:29.819Z,2.80
2023-04-23T05:20:57.249Z,2.55
2023-04-23T05:23:25.000Z,2.72
2023-04-23T05:25:56.034Z,2.42
2023-04-23T05:28:23.488Z,2.70
2023-04-23T05:30:51.483Z,2.65
2023-04-23T05:33:19.002Z,2.70
2023-04-23T05:35:46.658Z,2.88
2023-04-23T05:38:14.172Z,3.30
2023-04-23T05:40:41.673Z,3.00
2023-04-23T05:43:09.145Z,3.30
2023-04-23T05:45:36.574Z,3.70
2023-04-23T05:48:04.334Z,3.75
2023-04-23T05:50:31.804Z,4.05
2023-04-23T05:52:59.326Z,4.20
2023-04-23T05:55:26.972Z,4.53
2023-04-23T05:57:54.432Z,5.03
2023-04-23T06:00:22.000Z,5.57
2023-04-23T06:02:49.658Z,5.38
2023-04-23T06:05:17.463Z,4.70
2023-04-23T06:07:45.237Z,5.20
2023-04-23T06:10:13.011Z,5.40
2023-04-23T06:12:42.366Z,6.03
2023-04-23T06:15:10.424Z,6.00
2023-04-23T06:17:38.593Z,5.78
2023-04-23T06:20:07.782Z,5.75
2023-04-23T06:22:35.247Z,5.55
2023-04-23T06:25:02.737Z,6.20
2023-04-23T06:27:30.223Z,5.80
2023-04-23T06:30:02.825Z,6.50
2023-04-23T06:32:30.380Z,7.82
2023-04-23T06:35:01.314Z,5.95
2023-04-23T06:37:31.796Z,5.30
2023-04-23T06:39:59.952Z,5.85
2023-04-23T06:42:27.543Z,5.00
2023-04-23T06:45:15.499Z,4.65
2023-04-23T06:47:43.002Z,4.00
2023-04-23T06:50:10.565Z,3.25
2023-04-23T06:52:38.274Z,2.60
2023-04-23T06:55:06.383Z,2.10
2023-04-23T06:57:33.965Z,2.25
2023-04-23T07:00:01.556Z,2.00
2023-04-23T07:05:02.820Z,2.13
2023-04-23T07:07:30.187Z,1.85
2023-04-23T07:09:57.656Z,2.03
2023-04-23T07:12:25.167Z,1.92
2023-04-23T07:14:54.505Z,1.90
2023-04-23T07:17:22.085Z,1.83
2023-04-23T07:19:49.679Z,2.38
2023-04-23T07:22:17.545Z,1.92
2023-04-23T07:24:45.040Z,2.15
2023-04-23T07:27:12.578Z,2.20
2023-04-23T07:29:40.034Z,2.10
2023-04-23T07:32:07.590Z,1.85
2023-04-23T07:34:38.118Z,2.05
2023-04-23T07:37:06.019Z,2.17
2023-04-23T07:39:35.037Z,2.00
2023-04-23T07:42:02.460Z,2.15
2023-04-23T07:44:29.958Z,3.60
2023-04-23T07:46:57.449Z,2.75
2023-04-23T07:49:25.686Z,1.85
2023-04-23T07:51:53.558Z,2.50
2023-04-23T07:54:21.096Z,2.30
2023-04-23T07:56:48.571Z,2.38
2023-04-23T07:59:16.155Z,3.17
2023-04-23T08:01:43.663Z,3.13
2023-04-23T08:04:12.613Z,2.40
2023-04-23T08:06:40.251Z,1.90
2023-04-23T08:09:07.849Z,2.28
2023-04-23T08:11:35.559Z,2.08
2023-04-23T08:14:03.049Z,2.40
2023-04-23T08:16:31.093Z,2.58
2023-04-23T08:19:05.538Z,2.65
2023-04-23T08:21:33.955Z,3.40
2023-04-23T08:24:03.210Z,2.20
2023-04-23T08:26:31.683Z,3.25
2023-04-23T08:29:01.011Z,1.77
2023-04-23T08:31:29.086Z,2.53
2023-04-23T08:33:56.900Z,1.70
2023-04-23T08:36:24.821Z,1.77
2023-04-23T08:38:52.397Z,1.42
2023-04-23T08:41:23.531Z,1.65
2023-04-23T08:44:00.174Z,1.33
2023-04-23T08:46:32.907Z,1.30
2023-04-23T08:49:01.147Z,1.40
2023-04-23T08:51:30.831Z,1.50
2023-04-23T08:54:01.408Z,1.42
2023-04-23T08:56:29.135Z,1.15
2023-04-23T08:58:57.226Z,1.42
2023-04-23T09:01:25.200Z,1.40
2023-04-23T09:03:54.166Z,1.60
2023-04-23T09:06:22.005Z,1.92
2023-04-23T09:08:49.581Z,1.60
2023-04-23T09:11:17.685Z,1.90
2023-04-23T09:13:45.629Z,2.20
2023-04-23T09:16:13.041Z,1.60
2023-04-23T09:18:40.612Z,1.55
2023-04-23T09:21:08.177Z,1.60
2023-04-23T09:23:41.415Z,1.90
2023-04-23T09:26:09.036Z,1.83
2023-04-23T09:28:37.716Z,1.48
2023-04-23T09:31:06.392Z,2.13
2023-04-23T09:33:37.078Z,1.83
2023-04-23T09:36:14.153Z,1.70
2023-04-23T09:38:41.917Z,1.80
2023-04-23T09:41:27.191Z,3.65
2023-04-23T09:43:55.904Z,5.30
2023-04-23T09:46:33.514Z,12.70
2023-04-23T09:49:04.113Z,3.70
2023-04-23T09:51:32.213Z,1.85
2023-04-23T09:54:02.782Z,1.30
2023-04-23T09:56:32.293Z,1.70
2023-04-23T09:59:00.044Z,1.60
2023-04-23T10:01:30.581Z,1.52
2023-04-23T10:03:58.448Z,1.50
2023-04-23T10:06:42.387Z,1.23
2023-04-23T10:09:16.916Z,2.70
2023-04-23T10:11:44.974Z,1.13
2023-04-23T10:14:13.055Z,1.00
2023-04-23T10:16:48.773Z,1.20
2023-04-23T10:19:19.640Z,0.85
2023-04-23T10:21:56.208Z,1.20
2023-04-23T10:24:30.681Z,0.93
2023-04-23T10:27:02.137Z,0.82
2023-04-23T10:29:34.471Z,1.00
2023-04-23T10:32:03.781Z,1.70
2023-04-23T10:34:32.648Z,1.90
2023-04-23T10:37:01.953Z,2.80
2023-04-23T10:39:33.072Z,4.78
2023-04-23T10:42:02.331Z,3.00
2023-04-23T10:47:16.314Z,2.63
2023-04-23T10:49:44.721Z,1.40
2023-04-23T10:52:21.092Z,1.45
2023-04-23T10:54:59.856Z,1.60
2023-04-23T10:57:27.624Z,1.30
2023-04-23T10:59:56.526Z,1.15
2023-04-23T11:02:25.184Z,1.40
2023-04-23T11:04:57.470Z,1.67
2023-04-23T11:07:32.923Z,1.88
2023-04-23T11:10:11.512Z,1.50
2023-04-23T11:12:40.252Z,1.05
2023-04-23T11:15:15.444Z,1.40
2023-04-23T11:17:47.448Z,1.70
2023-04-23T11:20:22.333Z,1.20
2023-04-23T11:22:51.220Z,1.65
2023-04-23T11:25:22.921Z,1.00
2023-04-23T11:27:51.933Z,1.30
2023-04-23T11:30:21.998Z,2.67
2023-04-23T11:32:52.820Z,1.60
2023-04-23T11:35:23.177Z,1.00
2023-04-23T11:37:51.122Z,0.90
2023-04-23T11:40:19.604Z,1.30
2023-04-23T11:42:49.884Z,1.33
2023-04-23T11:45:22.838Z,1.80
2023-04-23T11:47:56.022Z,1.20
2023-04-23T11:50:33.756Z,1.02
2023-04-23T11:53:11.696Z,1.10
2023-04-23T11:55:44.072Z,1.42
2023-04-23T11:58:11.669Z,0.90
2023-04-23T12:00:39.155Z,1.23
2023-04-23T12:03:07.313Z,1.08
2023-04-23T12:05:45.997Z,1.02
2023-04-23T12:08:20.367Z,1.08
2023-04-23T12:10:55.733Z,1.17
2023-04-23T12:13:24.274Z,0.90
2023-04-23T12:15:58.262Z,1.60
2023-04-23T12:18:31.500Z,1.08
2023-04-23T12:21:09.712Z,1.25
2023-04-23T12:23:38.519Z,1.08
2023-04-23T12:26:11.924Z,1.10
2023-04-23T12:28:52.748Z,1.10
2023-04-23T12:31:22.222Z,1.00
2023-04-23T12:34:02.233Z,1.00
2023-04-23T12:36:32.940Z,0.95
2023-04-23T12:39:32.251Z,0.95
2023-04-23T12:42:03.041Z,0.70
2023-04-23T12:44:39.903Z,1.00
2023-04-23T12:47:08.884Z,0.90
2023-04-23T12:49:40.379Z,0.80
2023-04-23T12:52:09.648Z,1.00
2023-04-23T12:54:41.910Z,0.98
2023-04-23T12:57:13.027Z,1.02
2023-04-23T12:59:40.799Z,1.15
2023-04-23T13:02:10.172Z,0.98
2023-04-23T13:04:37.751Z,1.05
2023-04-23T13:07:05.384Z,1.00
2023-04-23T13:09:33.654Z,1.02
2023-04-23T13:12:02.613Z,1.05
2023-04-23T13:14:31.989Z,0.90
2023-04-23T13:16:59.608Z,1.30
2023-04-23T13:19:27.157Z,4.25
2023-04-23T13:21:54.730Z,1.90
2023-04-23T13:24:22.286Z,2.00
2023-04-23T13:26:49.810Z,10.25
2023-04-23T13:29:17.344Z,6.82
2023-04-23T13:31:44.969Z,2.38
2023-04-23T13:34:12.416Z,2.10
2023-04-23T13:36:43.194Z,4.82
2023-04-23T13:39:13.358Z,2.20
2023-04-23T13:41:41.425Z,2.20
2023-04-23T13:44:09.125Z,1.90
2023-04-23T13:46:36.906Z,2.20
2023-04-23T13:49:04.472Z,2.40
2023-04-23T13:51:37.407Z,2.10
2023-04-23T13:54:05.169Z,2.40
2023-04-23T13:56:32.886Z,2.03
2023-04-23T13:59:18.132Z,2.45
2023-04-23T14:01:48.590Z,2.70
2023-04-23T14:04:16.668Z,2.88
2023-04-23T14:06:44.939Z,3.70
2023-04-23T14:09:12.567Z,3.90
2023-04-23T14:11:41.752Z,5.10
2023-04-23T14:14:09.370Z,4.15
2023-04-23T14:16:36.889Z,3.58
2023-04-23T14:19:04.416Z,3.17
2023-04-23T14:21:31.990Z,3.60
2023-04-23T14:24:10.359Z,3.90
2023-04-23T14:26:48.663Z,3.30
2023-04-23T14:29:29.181Z,3.30
2023-04-23T14:31:56.786Z,3.28
2023-04-23T14:34:24.287Z,2.67
2023-04-23T14:36:53.333Z,2.42
2023-04-23T14:39:27.026Z,2.60
2023-04-23T14:41:54.563Z,4.15
2023-04-23T14:44:23.614Z,2.53
2023-04-23T14:46:51.373Z,2.80
2023-04-23T14:49:21.128Z,2.40
2023-04-23T14:51:51.040Z,2.30
2023-04-23T14:54:19.102Z,2.15
2023-04-23T14:56:46.985Z,2.17
2023-04-23T14:59:15.198Z,2.67
2023-04-23T15:01:43.357Z,2.85
2023-04-23T15:04:12.044Z,2.47
2023-04-23T15:06:40.635Z,3.78
2023-04-23T15:09:08.397Z,3.47
2023-04-23T15:11:38.729Z,3.80
2023-04-23T15:14:18.910Z,4.38
2023-04-23T15:16:49.285Z,3.50
2023-04-23T15:19:18.680Z,3.20
2023-04-23T15:21:47.737Z,3.90
2023-04-23T15:24:16.467Z,3.20
2023-04-23T15:26:46.132Z,4.45
2023-04-23T15:29:14.134Z,3.40
2023-04-23T15:31:42.293Z,3.70
2023-04-23T15:34:11.686Z,4.10
2023-04-23T15:36:39.305Z,3.95
2023-04-23T15:39:08.770Z,6.40
2023-04-23T15:41:39.586Z,4.38
2023-04-23T15:44:12.107Z,9.45
2023-04-23T15:46:40.350Z,4.22
2023-04-23T15:49:08.143Z,3.50
2023-04-23T15:51:36.553Z,3.63
2023-04-23T15:54:08.716Z,3.75
2023-04-23T15:56:37.140Z,4.45
2023-04-23T15:59:05.334Z,5.38
2023-04-23T16:01:33.071Z,5.88
2023-04-23T16:06:32.080Z,6.35
2023-04-23T16:08:59.757Z,6.15
2023-04-23T16:11:28.496Z,6.22
2023-04-23T16:13:57.157Z,10.50
2023-04-23T16:16:24.892Z,7.68
2023-04-23T16:18:52.498Z,7.95
2023-04-23T16:21:20.037Z,8.70
2023-04-23T16:23:47.501Z,7.05
2023-04-23T16:26:15.785Z,7.25
2023-04-23T16:28:43.639Z,6.60
2023-04-23T16:31:12.386Z,6.30
2023-04-23T16:33:40.712Z,5.90
2023-04-23T16:36:08.342Z,5.35
2023-04-23T16:38:35.882Z,5.43
2023-04-23T16:41:03.609Z,4.60
2023-04-23T16:43:31.532Z,5.45
2023-04-23T16:45:59.095Z,8.57
2023-04-23T16:48:26.665Z,5.90
2023-04-23T16:50:55.112Z,6.97
2023-04-23T16:53:22.652Z,8.50
2023-04-23T16:55:50.286Z,4.80
2023-04-23T16:58:18.887Z,3.58
2023-04-23T17:00:47.099Z,8.55
2023-04-23T17:03:16.055Z,6.68
2023-04-23T17:05:44.289Z,10.52
2023-04-23T17:08:11.948Z,9.23
2023-04-23T17:10:39.558Z,19.35
2023-04-23T17:13:07.075Z,28.55
2023-04-23T17:15:34.598Z,5.13
2023-04-23T17:18:02.413Z,3.20
2023-04-23T17:20:35.259Z,6.30
2023-04-23T17:23:03.738Z,7.88
2023-04-23T17:25:31.221Z,5.68
2023-04-23T17:27:58.806Z,5.50
2023-04-23T17:30:26.358Z,3.95
2023-04-23T17:32:53.994Z,3.97
2023-04-23T17:35:21.698Z,4.00
2023-04-23T17:37:49.457Z,4.18
2023-04-23T17:40:17.437Z,8.90
2023-04-23T17:42:45.280Z,8.98
2023-04-23T17:45:12.874Z,6.65
2023-04-23T17:47:41.141Z,7.43
2023-04-23T17:50:11.768Z,8.82
2023-04-23T17:52:42.323Z,4.30
2023-04-23T17:55:10.103Z,7.78
2023-04-23T17:57:37.706Z,6.30
2023-04-23T18:00:15.741Z,3.75
2023-04-23T18:02:44.721Z,3.90
2023-04-23T18:05:14.637Z,3.08
2023-04-23T18:07:43.837Z,3.00
2023-04-23T18:10:14.617Z,3.13
2023-04-23T18:12:42.156Z,3.28
2023-04-23T18:15:12.522Z,3.03
2023-04-23T18:17:40.187Z,3.20
2023-04-23T18:20:11.282Z,3.10
2023-04-23T18:22:41.294Z,3.70
2023-04-23T18:25:12.908Z,3.70
2023-04-23T18:27:40.617Z,4.22
2023-04-23T18:30:09.159Z,4.10
2023-04-23T18:32:41.757Z,4.28
2023-04-23T18:35:10.269Z,4.50
2023-04-23T18:37:48.360Z,4.68
2023-04-23T18:40:15.923Z,5.05
2023-04-23T18:42:43.443Z,6.25
2023-04-23T18:45:11.241Z,5.53
2023-04-23T18:47:44.463Z,12.45
2023-04-23T18:50:41.899Z,13.63
2023-04-23T18:53:09.734Z,12.75
2023-04-23T18:55:37.200Z,21.38
2023-04-23T18:58:05.105Z,7.22
2023-04-23T19:00:32.682Z,6.78
2023-04-23T19:03:02.755Z,14.93
2023-04-23T19:08:03.419Z,8.60
2023-04-23T19:10:31.019Z,7.70
2023-04-23T19:12:59.279Z,6.90
2023-04-23T19:15:26.808Z,6.63
2023-04-23T19:17:54.483Z,5.80
2023-04-23T19:20:22.102Z,5.60
2023-04-23T19:22:49.617Z,4.32
2023-04-23T19:25:17.620Z,4.18
2023-04-23T19:27:45.194Z,4.10
2023-04-23T19:30:12.980Z,3.58
2023-04-23T19:32:40.548Z,3.78
2023-04-23T19:35:08.508Z,3.95
2023-04-23T19:37:37.119Z,3.40
2023-04-23T19:40:05.116Z,3.80
2023-04-23T19:42:33.941Z,3.20
2023-04-23T19:45:01.421Z,3.78
2023-04-23T19:47:29.146Z,3.08
2023-04-23T19:49:56.763Z,3.33
2023-04-23T19:52:26.505Z,2.92
2023-04-23T19:54:54.078Z,2.92
2023-04-23T19:57:22.375Z,2.67
2023-04-23T19:59:49.885Z,2.92
2023-04-23T20:02:17.581Z,3.03
2023-04-23T20:04:48.487Z,3.10
2023-04-23T20:07:17.145Z,3.78
2023-04-23T20:09:45.055Z,4.80
2023-04-23T20:12:14.189Z,4.70
2023-04-23T20:14:42.778Z,6.38
2023-04-23T20:17:10.599Z,7.20
2023-04-23T20:19:38.488Z,7.65
2023-04-23T20:22:07.012Z,7.50
2023-04-23T20:24:35.860Z,7.30
2023-04-23T20:27:03.459Z,8.13
2023-04-23T20:29:31.023Z,8.52
2023-04-23T20:31:58.827Z,9.07
2023-04-23T20:34:26.557Z,10.52
2023-04-23T20:36:54.119Z,10.85
2023-04-23T20:39:24.484Z,10.48
2023-04-23T20:41:52.616Z,10.55
2023-04-23T20:44:22.769Z,9.50
2023-04-23T20:46:51.455Z,9.00
2023-04-23T20:49:19.027Z,9.40
2023-04-23T20:51:46.849Z,9.20
2023-04-23T20:54:14.406Z,7.88
2023-04-23T20:56:42.677Z,7.95
2023-04-23T20:59:10.824Z,7.85
2023-04-23T21:01:38.426Z,8.77
2023-04-23T21:04:06.978Z,9.02
2023-04-23T21:06:35.400Z,9.45
2023-04-23T21:09:02.927Z,9.10
2023-04-23T21:11:31.859Z,9.13
2023-04-23T21:14:00.987Z,8.98
2023-04-23T21:16:28.666Z,9.40
2023-04-23T21:18:56.304Z,9.75
2023-04-23T21:21:28.024Z,10.02
2023-04-23T21:23:56.681Z,9.90
2023-04-23T21:26:24.422Z,11.13
2023-04-23T21:28:51.923Z,11.50
2023-04-23T21:31:34.037Z,11.50
2023-04-23T21:34:01.699Z,10.55
2023-04-23T21:36:29.389Z,10.02
2023-04-23T21:38:56.934Z,10.18
2023-04-23T21:41:24.696Z,9.38
2023-04-23T21:43:52.259Z,9.95
2023-04-23T21:46:19.878Z,9.73
2023-04-23T21:48:53.896Z,9.90
2023-04-23T21:51:25.299Z,9.80
2023-04-23T21:53:52.855Z,9.82
2023-04-23T21:56:21.656Z,9.02
2023-04-23T21:58:49.263Z,9.52
2023-04-23T22:01:18.225Z,9.13
2023-04-23T22:03:46.926Z,9.00
2023-04-23T22:06:16.073Z,8.57
2023-04-23T22:08:46.346Z,8.52
2023-04-23T22:11:14.867Z,8.60
2023-04-23T22:13:42.419Z,7.57
2023-04-23T22:16:24.521Z,7.90
2023-04-23T22:18:59.268Z,7.88
2023-04-23T22:21:26.867Z,7.35
2023-04-23T22:23:54.464Z,7.63
2023-04-23T22:30:34.584Z,6.25
2023-04-23T22:33:02.133Z,6.97
2023-04-23T22:35:29.846Z,6.88
2023-04-23T22:37:57.746Z,6.72
2023-04-23T22:40:25.219Z,7.15
2023-04-23T22:42:52.798Z,6.97
2023-04-23T22:45:20.315Z,6.90
2023-04-23T22:47:48.431Z,7.03
2023-04-23T22:50:16.019Z,6.40
2023-04-23T22:52:43.825Z,6.60
2023-04-23T22:55:11.947Z,6.97
2023-04-23T22:57:39.462Z,6.97
2023-04-23T23:00:11.560Z,6.65
2023-04-23T23:02:39.148Z,6.70
2023-04-23T23:05:07.448Z,6.72
2023-04-23T23:07:34.935Z,6.07
2023-04-23T23:10:03.819Z,6.55
2023-04-23T23:12:31.818Z,6.28
2023-04-23T23:14:59.310Z,6.10
2023-04-23T23:17:26.804Z,6.22
2023-04-23T23:19:54.298Z,6.22
2023-04-23T23:22:21.819Z,5.53
2023-04-23T23:24:49.289Z,5.40
2023-04-23T23:27:16.691Z,5.88
2023-04-23T23:29:44.430Z,5.60
2023-04-23T23:32:12.101Z,6.53
2023-04-23T23:34:39.596Z,6.55
2023-04-23T23:37:07.109Z,6.53
2023-04-23T23:39:34.599Z,6.15
2023-04-23T23:42:02.449Z,6.50
2023-04-23T23:44:30.018Z,5.75
2023-04-23T23:46:57.610Z,5.85
2023-04-23T23:49:25.538Z,6.18
2023-04-23T23:51:53.105Z,6.10
2023-04-23T23:54:20.620Z,6.25
2023-04-23T23:56:48.072Z,6.32
2023-04-23T23:59:15.591Z,6.45
